createdAt,value
2023-04-19T00:01:02.094Z,101284.69
2023-04-19T00:06:08.567Z,101285.03
2023-04-19T00:11:13.235Z,101280.22
2023-04-19T00:16:18.234Z,101267.69
2023-04-19T00:21:22.995Z,101271.22
2023-04-19T00:26:26.174Z,101269.88
2023-04-19T00:31:29.571Z,101265.81
2023-04-19T00:36:34.136Z,101274.63
2023-04-19T00:41:37.254Z,101268.53
2023-04-19T00:46:40.977Z,101272.31
2023-04-19T00:51:45.810Z,101279.53
2023-04-19T00:56:49.149Z,101274.09
2023-04-19T01:01:54.486Z,101271.97
2023-04-19T01:06:59.583Z,101261.09
2023-04-19T01:12:04.537Z,101258.25
2023-04-19T01:17:08.912Z,101260.88
2023-04-19T01:22:18.378Z,101243.53
2023-04-19T01:27:21.932Z,101247.66
2023-04-19T01:32:27.090Z,101248.94
2023-04-19T01:37:38.634Z,101251.63
2023-04-19T01:42:42.136Z,101248.59
2023-04-19T01:47:47.302Z,101243.06
2023-04-19T01:52:52.196Z,101253.66
2023-04-19T02:04:37.538Z,101253.56
2023-04-19T02:09:42.663Z,101252.47
2023-04-19T02:14:46.368Z,101249.44
2023-04-19T02:19:50.237Z,101243.78
2023-04-19T02:24:55.272Z,101244.47
2023-04-19T02:30:00.124Z,101247.16
2023-04-19T02:35:03.979Z,101244.38
2023-04-19T02:40:10.601Z,101236.72
2023-04-19T02:45:14.474Z,101241.13
2023-04-19T02:50:18.858Z,101229.38
2023-04-19T02:55:23.806Z,101237.81
2023-04-19T03:00:27.386Z,101230.13
2023-04-19T03:05:31.017Z,101224.56
2023-04-19T03:10:35.972Z,101231.84
2023-04-19T03:15:39.260Z,101221.50
2023-04-19T03:20:44.674Z,101218.16
2023-04-19T03:25:49.700Z,101217.81
2023-04-19T03:30:53.327Z,101222.25
2023-04-19T03:35:56.750Z,101208.59
2023-04-19T03:41:02.032Z,101212.94
2023-04-19T03:46:05.459Z,101216.59
2023-04-19T03:51:09.102Z,101218.34
2023-04-19T03:56:14.154Z,101206.31
2023-04-19T04:01:20.538Z,101202.78
2023-04-19T04:06:23.993Z,101210.53
2023-04-19T04:11:29.230Z,101206.63
2023-04-19T04:16:32.687Z,101205.22
2023-04-19T04:21:36.149Z,101210.31
2023-04-19T04:26:41.082Z,101205.22
2023-04-19T04:31:44.534Z,101206.97
2023-04-19T04:36:49.946Z,101212.19
2023-04-19T04:41:54.722Z,101215.00
2023-04-19T04:46:58.237Z,101212.66
2023-04-19T04:52:01.664Z,101221.78
2023-04-19T04:57:06.737Z,101216.84
2023-04-19T05:02:15.149Z,101211.19
2023-04-19T05:07:18.864Z,101210.78
2023-04-19T05:12:24.132Z,101214.16
2023-04-19T05:17:27.913Z,101223.09
2023-04-19T05:22:36.104Z,101213.94
2023-04-19T05:27:40.814Z,101214.78
2023-04-19T05:32:52.811Z,101220.56
2023-04-19T05:37:56.219Z,101207.06
2023-04-19T05:43:01.020Z,101219.44
2023-04-19T05:48:04.477Z,101212.94
2023-04-19T05:53:11.652Z,101211.34
2023-04-19T05:58:16.658Z,101209.09
2023-04-19T06:03:25.277Z,101205.25
2023-04-19T06:08:30.016Z,101202.06
2023-04-19T06:13:38.741Z,101201.13
2023-04-19T06:18:43.608Z,101199.31
2023-04-19T06:23:46.967Z,101200.53
2023-04-19T06:28:51.616Z,101207.13
2023-04-19T06:33:55.084Z,101201.78
2023-04-19T06:38:58.361Z,101197.41
2023-04-19T06:44:08.109Z,101193.13
2023-04-19T06:49:11.418Z,101185.69
2023-04-19T06:54:14.611Z,101188.97
2023-04-19T06:59:22.016Z,101186.06
2023-04-19T07:04:26.263Z,101181.84
2023-04-19T07:09:30.790Z,101186.66
2023-04-19T07:14:36.798Z,101180.81
2023-04-19T07:19:40.048Z,101176.22
2023-04-19T07:24:44.703Z,101174.44
2023-04-19T07:29:49.351Z,101165.34
2023-04-19T07:34:53.125Z,101167.22
2023-04-19T07:39:57.195Z,101156.28
2023-04-19T07:45:01.862Z,101150.69
2023-04-19T07:50:07.769Z,101157.66
2023-04-19T07:55:12.288Z,101144.28
2023-04-19T08:00:17.919Z,101146.25
2023-04-19T08:05:21.497Z,101149.41
2023-04-19T08:10:26.051Z,101148.13
2023-04-19T08:20:36.944Z,101132.66
2023-04-19T08:25:40.324Z,101117.22
2023-04-19T08:30:45.624Z,101108.25
2023-04-19T08:35:49.413Z,101111.19
2023-04-19T08:41:13.499Z,101109.97
2023-04-19T08:46:18.740Z,101094.19
2023-04-19T08:51:22.633Z,101086.75
2023-04-19T08:56:34.820Z,101091.31
2023-04-19T09:01:43.632Z,101089.22
2023-04-19T09:06:48.085Z,101078.72
2023-04-19T09:11:51.632Z,101071.13
2023-04-19T09:17:12.706Z,101074.13
2023-04-19T09:22:15.987Z,101068.03
2023-04-19T09:27:27.781Z,101051.59
2023-04-19T09:32:48.282Z,101049.00
2023-04-19T09:38:06.304Z,101042.50
2023-04-19T09:43:33.056Z,101042.31
2023-04-19T09:48:35.240Z,101037.75
2023-04-19T09:53:42.072Z,101025.81
2023-04-19T09:58:51.171Z,101019.44
2023-04-19T10:04:01.324Z,101008.31
2023-04-19T10:09:10.935Z,101010.94
2023-04-19T10:14:15.705Z,101004.66
2023-04-19T10:19:23.455Z,100985.06
2023-04-19T10:24:26.872Z,100988.94
2023-04-19T10:29:57.908Z,100980.88
2023-04-19T10:35:09.740Z,100976.63
2023-04-19T10:40:13.630Z,100964.91
2023-04-19T10:45:36.715Z,100952.19
2023-04-19T10:51:02.780Z,100953.19
2023-04-19T10:56:07.420Z,100943.31
2023-04-19T11:01:33.972Z,100933.56
2023-04-19T11:06:40.104Z,100932.25
2023-04-19T11:11:44.066Z,100914.28
2023-04-19T11:16:47.734Z,100910.03
2023-04-19T11:21:52.836Z,100905.66
2023-04-19T11:26:58.667Z,100889.00
2023-04-19T11:32:02.309Z,100902.97
2023-04-19T11:37:07.679Z,100894.53
2023-04-19T11:42:18.951Z,100895.16
2023-04-19T11:47:22.463Z,100883.56
2023-04-19T11:52:28.181Z,100871.47
2023-04-19T11:57:32.297Z,100874.56
2023-04-19T12:02:40.509Z,100870.19
2023-04-19T12:08:03.158Z,100879.38
2023-04-19T12:13:18.848Z,100863.28
2023-04-19T12:18:22.248Z,100870.91
2023-04-19T12:23:30.337Z,100862.53
2023-04-19T12:28:33.605Z,100873.13
2023-04-19T12:33:37.344Z,100856.50
2023-04-19T12:38:41.992Z,100856.25
2023-04-19T12:43:45.365Z,100862.78
2023-04-19T12:48:48.692Z,100843.81
2023-04-19T12:53:53.968Z,100840.22
2023-04-19T12:58:57.445Z,100837.13
2023-04-19T13:04:00.948Z,100829.50
2023-04-19T13:09:14.193Z,100816.38
2023-04-19T13:14:21.046Z,100813.28
2023-04-19T13:19:24.478Z,100811.63
2023-04-19T13:24:29.269Z,100805.69
2023-04-19T13:29:32.504Z,100791.56
2023-04-19T13:34:37.299Z,100797.22
2023-04-19T13:39:42.171Z,100781.69
2023-04-19T13:44:47.010Z,100775.13
2023-04-19T13:49:53.205Z,100754.50
2023-04-19T13:54:57.782Z,100759.81
2023-04-19T14:00:01.704Z,100765.22
2023-04-19T14:05:05.542Z,100757.22
2023-04-19T14:10:11.533Z,100760.41
2023-04-19T14:15:14.809Z,100758.31
2023-04-19T14:20:19.138Z,100738.72
2023-04-19T14:25:23.995Z,100739.56
2023-04-19T14:30:28.424Z,100734.59
2023-04-19T14:35:32.746Z,100739.59
2023-04-19T14:40:37.802Z,100734.31
2023-04-19T14:45:41.328Z,100733.16
2023-04-19T14:50:44.704Z,100736.06
2023-04-19T14:55:49.766Z,100772.28
2023-04-19T15:00:54.402Z,100778.56
2023-04-19T15:05:57.913Z,100821.63
2023-04-19T15:11:02.755Z,100811.16
2023-04-19T15:16:07.813Z,100789.47
2023-04-19T15:21:11.045Z,100786.53
2023-04-19T15:26:16.467Z,100778.09
2023-04-19T15:31:21.559Z,100763.88
2023-04-19T15:36:24.721Z,100768.06
2023-04-19T15:41:29.331Z,100756.63
2023-04-19T15:46:32.632Z,100750.63
2023-04-19T15:51:35.991Z,100751.00
2023-04-19T15:56:40.688Z,100744.09
2023-04-19T16:01:43.991Z,100745.88
2023-04-19T16:06:47.339Z,100736.56
2023-04-19T16:11:52.305Z,100720.75
2023-04-19T16:16:55.565Z,100716.03
2023-04-19T16:22:02.117Z,100717.56
2023-04-19T16:27:06.982Z,100713.03
2023-04-19T16:32:11.083Z,100715.72
2023-04-19T16:37:18.251Z,100714.66
2023-04-19T16:42:31.123Z,100711.22
2023-04-19T16:47:38.278Z,100706.94
2023-04-19T16:52:44.550Z,100715.97
2023-04-19T16:57:51.194Z,100712.91
2023-04-19T17:02:54.807Z,100706.13
2023-04-19T17:07:58.510Z,100704.00
2023-04-19T17:13:03.484Z,100700.44
2023-04-19T17:18:07.254Z,100693.53
2023-04-19T17:23:10.553Z,100698.44
2023-04-19T17:28:15.556Z,100701.44
2023-04-19T17:33:18.934Z,100708.16
2023-04-19T17:38:22.327Z,100707.59
2023-04-19T17:43:26.872Z,100705.47
2023-04-19T17:48:30.192Z,100699.66
2023-04-19T17:53:33.686Z,100700.28
2023-04-19T17:58:38.475Z,100694.69
2023-04-19T18:03:42.033Z,100695.50
2023-04-19T18:08:46.080Z,100695.41
2023-04-19T18:13:51.376Z,100689.47
2023-04-19T18:18:54.858Z,100702.34
2023-04-19T18:24:03.017Z,100699.38
2023-04-19T18:29:07.939Z,100721.50
2023-04-19T18:34:12.638Z,100728.22
2023-04-19T18:39:18.825Z,100737.41
2023-04-19T18:44:38.920Z,100740.72
2023-04-19T18:50:02.667Z,100747.22
2023-04-19T18:55:24.741Z,100738.41
2023-04-19T19:00:32.356Z,100744.84
2023-04-19T19:05:35.879Z,100749.56
2023-04-19T19:11:07.091Z,100758.34
2023-04-19T19:16:04.431Z,100761.16
2023-04-19T19:21:08.974Z,100761.34
2023-04-19T19:26:12.960Z,100760.84
2023-04-19T19:31:18.272Z,100764.38
2023-04-19T19:36:23.916Z,100767.88
2023-04-19T19:42:03.330Z,100761.00
2023-04-19T19:46:56.229Z,100753.34
2023-04-19T19:51:59.842Z,100752.41
2023-04-19T19:58:08.045Z,100743.22
2023-04-19T20:02:35.460Z,100739.72
2023-04-19T20:08:00.482Z,100743.47
2023-04-19T20:13:06.004Z,100737.41
2023-04-19T20:18:10.957Z,100732.94
2023-04-19T20:23:16.842Z,100734.69
2023-04-19T20:28:20.618Z,100729.53
2023-04-19T20:33:25.683Z,100734.66
2023-04-19T20:38:29.965Z,100730.53
2023-04-19T20:43:33.095Z,100735.00
2023-04-19T20:48:37.778Z,100739.41
2023-04-19T20:53:41.003Z,100742.00
2023-04-19T20:58:52.512Z,100731.47
2023-04-19T21:03:57.472Z,100732.81
2023-04-19T21:09:08.764Z,100737.91
2023-04-19T21:14:11.945Z,100732.16
2023-04-19T21:19:17.387Z,100721.09
2023-04-19T21:24:24.120Z,100729.75
2023-04-19T21:29:30.594Z,100723.91
2023-04-19T21:34:35.604Z,100713.22
2023-04-19T21:39:39.061Z,100721.66
2023-04-19T21:44:44.841Z,100705.41
2023-04-19T21:49:51.535Z,100719.34
2023-04-19T21:54:54.982Z,100724.56
2023-04-19T21:59:58.861Z,100710.38
2023-04-19T22:05:04.401Z,100720.84
2023-04-19T22:10:09.542Z,100719.19
2023-04-19T22:15:13.405Z,100720.97
2023-04-19T22:20:18.231Z,100715.13
2023-04-19T22:25:21.884Z,100718.44
2023-04-19T22:30:25.696Z,100714.56
2023-04-19T22:35:51.712Z,100710.41
2023-04-19T22:40:55.325Z,100700.38
2023-04-19T22:45:58.811Z,100694.78
2023-04-19T22:51:03.564Z,100700.72
2023-04-19T22:56:07.145Z,100707.41
2023-04-19T23:01:10.437Z,100698.50
2023-04-19T23:06:15.208Z,100699.50
2023-04-19T23:11:18.446Z,100696.38
2023-04-19T23:16:22.721Z,100688.78
2023-04-19T23:21:27.432Z,100677.94
2023-04-19T23:26:31.317Z,100675.00
2023-04-19T23:31:34.876Z,100680.13
2023-04-19T23:36:39.656Z,100676.78
2023-04-19T23:41:43.666Z,100677.72
2023-04-19T23:46:46.955Z,100672.13
2023-04-19T23:51:51.723Z,100670.38
2023-04-19T23:56:55.764Z,100674.53
